Time;durP1;ratioP1;P1;durP2;ratioP2;P2;SDS_P1;SDS_P2;PMS_P1;PMS_P2;Temp;Humidity;BMP_temperature;BMP_pressure;BME280_temperature;BME280_humidity;BME280_pressure;Samples;Min_cycle;Max_cycle;Signal;HPM_P1;HPM_P2
2022/07/20 00:00:47;;;;;;;3.83;3.10;;;;;;;20.47;68.02;98376.38;5011084;28;20018;-71
2022/07/20 00:03:13;;;;;;;5.72;3.88;;;;;;;20.41;69.02;98386.94;5010878;28;20283;-70
2022/07/20 00:05:40;;;;;;;6.82;3.63;;;;;;;20.36;70.21;98383.56;5011240;28;20463;-71
2022/07/20 00:08:06;;;;;;;8.80;3.92;;;;;;;20.28;70.86;98390.88;5011605;28;20438;-71
2022/07/20 00:13:16;;;;;;;5.40;3.40;;;;;;;20.23;71.40;98393.84;5011179;28;20076;-71
2022/07/20 00:15:42;;;;;;;5.50;4.15;;;;;;;20.10;73.04;98392.22;5011027;28;20470;-71
2022/07/20 00:18:07;;;;;;;8.77;3.63;;;;;;;19.96;73.86;98389.78;5011114;28;20030;-71
2022/07/20 00:20:33;;;;;;;4.90;3.30;;;;;;;19.95;74.42;98390.16;5011213;28;20045;-72
2022/07/20 00:22:59;;;;;;;10.35;4.30;;;;;;;19.97;74.48;98391.41;5011054;28;20068;-72
2022/07/20 00:25:25;;;;;;;5.97;3.78;;;;;;;19.90;74.99;98391.16;5011096;28;20076;-71
2022/07/20 00:27:51;;;;;;;4.88;3.55;;;;;;;19.81;74.36;98386.88;5010979;28;20049;-71
2022/07/20 00:30:17;;;;;;;6.10;3.65;;;;;;;19.78;74.50;98388.38;5010923;28;20503;-71
2022/07/20 00:32:42;;;;;;;4.80;3.78;;;;;;;19.80;75.01;98383.28;5010701;28;20050;-72
2022/07/20 00:35:10;;;;;;;5.55;3.30;;;;;;;19.80;74.40;98379.72;5010775;28;20084;-72
2022/07/20 00:37:36;;;;;;;4.80;3.55;;;;;;;19.84;74.50;98373.13;5011054;28;20132;-71
2022/07/20 00:40:04;;;;;;;6.07;3.55;;;;;;;19.91;74.33;98373.34;4993681;28;20117;-71
2022/07/20 00:42:29;;;;;;;5.93;3.70;;;;;;;19.84;74.51;98375.06;5010979;28;20473;-71
2022/07/20 00:44:54;;;;;;;6.97;3.75;;;;;;;19.73;75.26;98377.50;5010692;28;20105;-71
2022/07/20 00:47:20;;;;;;;8.50;3.92;;;;;;;19.80;74.49;98369.41;5010708;28;20030;-71
2022/07/20 00:49:45;;;;;;;10.15;4.03;;;;;;;19.81;74.08;98379.34;5010614;28;20062;-71
2022/07/20 00:52:11;;;;;;;11.98;3.80;;;;;;;19.77;73.95;98378.41;5010619;28;20014;-71
2022/07/20 00:54:38;;;;;;;5.45;3.60;;;;;;;19.69;74.12;98374.59;5010813;28;20061;-71
2022/07/20 00:57:04;;;;;;;4.82;3.60;;;;;;;19.60;74.54;98375.88;5010688;28;20036;-71
2022/07/20 00:59:30;;;;;;;6.45;3.58;;;;;;;19.58;75.12;98367.03;5010730;28;20030;-71
2022/07/20 01:01:55;;;;;;;6.45;3.63;;;;;;;19.68;74.21;98369.38;5010571;28;20040;-71
2022/07/20 01:04:21;;;;;;;6.80;3.65;;;;;;;19.73;73.68;98374.72;5010391;28;20034;-72
2022/07/20 01:06:47;;;;;;;5.45;3.72;;;;;;;19.75;73.29;98372.41;5010505;28;20029;-70
2022/07/20 01:09:12;;;;;;;6.30;3.60;;;;;;;19.61;74.26;98381.06;5010999;28;20079;-71
2022/07/20 01:11:38;;;;;;;7.47;3.45;;;;;;;19.49;74.86;98381.03;5010519;28;20065;-71
2022/07/20 01:14:05;;;;;;;6.00;3.47;;;;;;;19.51;74.51;98378.75;5011526;28;20045;-72
2022/07/20 01:16:32;;;;;;;6.60;4.32;;;;;;;19.41;74.52;98375.56;5014297;28;20030;-71
2022/07/20 01:18:57;;;;;;;4.65;3.60;;;;;;;19.35;75.33;98374.16;5014433;28;20038;-71
2022/07/20 01:21:23;;;;;;;4.00;3.08;;;;;;;19.32;76.34;98380.38;5014373;28;20412;-71
2022/07/20 01:23:48;;;;;;;5.53;3.65;;;;;;;19.25;77.55;98370.66;5014272;28;20029;-70
2022/07/20 01:26:17;;;;;;;7.20;4.00;;;;;;;19.22;78.59;98376.06;5013929;28;20045;-71
2022/07/20 01:28:42;;;;;;;7.78;3.72;;;;;;;19.19;78.98;98376.75;5014112;28;20386;-71
2022/07/20 01:31:08;;;;;;;5.88;3.63;;;;;;;19.04;80.10;98375.44;5013922;28;20057;-71
2022/07/20 01:33:33;;;;;;;6.00;3.63;;;;;;;18.90;81.51;98371.31;5014426;28;20739;-71
2022/07/20 01:35:58;;;;;;;6.22;3.65;;;;;;;18.89;81.98;98372.47;5013840;28;20045;-71
2022/07/20 01:38:24;;;;;;;7.75;3.78;;;;;;;18.92;81.82;98372.56;4996598;28;20552;-71
2022/07/20 01:40:49;;;;;;;9.35;3.70;;;;;;;18.84;82.01;98370.69;5014136;28;20125;-71
2022/07/20 01:43:14;;;;;;;10.25;4.15;;;;;;;18.77;82.67;98375.97;5014030;28;20032;-71
2022/07/20 01:45:40;;;;;;;10.20;3.85;;;;;;;18.75;82.98;98371.91;5016279;28;20041;-71
2022/07/20 01:48:05;;;;;;;8.02;3.88;;;;;;;18.65;83.85;98375.91;4998003;28;20041;-71
2022/07/20 01:50:31;;;;;;;8.73;3.75;;;;;;;18.60;84.27;98373.34;5014000;28;20052;-70
2022/07/20 01:52:56;;;;;;;5.85;3.33;;;;;;;18.64;83.84;98372.31;5013791;28;20030;-71
2022/07/20 01:55:22;;;;;;;5.85;3.88;;;;;;;18.60;84.31;98373.34;5013708;28;20478;-71
2022/07/20 01:57:47;;;;;;;7.50;3.95;;;;;;;18.60;83.78;98365.03;5013742;28;20072;-71
2022/07/20 02:00:13;;;;;;;6.20;3.55;;;;;;;18.62;83.75;98371.03;5013691;28;20048;-71
2022/07/20 02:02:40;;;;;;;5.05;3.92;;;;;;;18.60;84.17;98376.13;5013416;28;20045;-71
2022/07/20 02:05:06;;;;;;;7.32;4.43;;;;;;;18.59;84.43;98377.25;5013418;28;20034;-71
2022/07/20 02:07:31;;;;;;;4.53;3.50;;;;;;;18.58;84.59;98378.41;5013471;28;20048;-71
2022/07/20 02:09:57;;;;;;;4.82;3.70;;;;;;;18.56;84.97;98384.28;5013648;28;20030;-71
2022/07/20 02:12:22;;;;;;;5.82;3.95;;;;;;;18.59;85.02;98380.84;5013348;28;20036;-71
2022/07/20 02:14:47;;;;;;;7.28;3.83;;;;;;;18.63;84.86;98375.44;5013243;28;20046;-70
2022/07/20 02:17:13;;;;;;;5.72;3.90;;;;;;;18.61;84.66;98377.72;5013346;28;20029;-71
2022/07/20 02:19:38;;;;;;;5.40;4.03;;;;;;;18.59;84.82;98385.56;5013336;28;20467;-71
2022/07/20 02:22:03;;;;;;;5.72;4.10;;;;;;;18.63;84.63;98381.81;5013366;28;20033;-71
2022/07/20 02:24:28;;;;;;;8.13;4.18;;;;;;;18.70;84.36;98384.81;5013063;28;20061;-72
2022/07/20 02:26:54;;;;;;;5.15;3.63;;;;;;;18.75;84.06;98383.81;5012488;28;20030;-70
2022/07/20 02:29:19;;;;;;;4.32;3.58;;;;;;;18.64;84.44;98388.13;5013125;28;20030;-72
2022/07/20 02:31:44;;;;;;;10.60;3.78;;;;;;;18.67;84.75;98387.47;5012909;28;20606;-71
2022/07/20 02:34:10;;;;;;;6.32;3.75;;;;;;;18.66;84.76;98385.84;5012917;28;20080;-71
2022/07/20 02:36:35;;;;;;;10.55;4.10;;;;;;;18.54;85.36;98383.78;5012776;28;20053;-71
2022/07/20 02:39:00;;;;;;;6.65;3.70;;;;;;;18.53;85.73;98375.84;5013282;28;20403;-72
2022/07/20 02:41:26;;;;;;;6.50;3.90;;;;;;;18.53;86.26;98381.38;5012838;28;20116;-71
2022/07/20 02:43:51;;;;;;;7.88;4.03;;;;;;;18.40;87.72;98380.44;5012747;28;20463;-71
2022/07/20 02:46:17;;;;;;;5.15;4.15;;;;;;;18.31;88.88;98379.69;5012735;28;20037;-71
2022/07/20 02:48:42;;;;;;;5.63;3.78;;;;;;;18.19;90.06;98385.97;5012894;28;20044;-71
2022/07/20 02:51:07;;;;;;;5.90;3.97;;;;;;;18.08;90.82;98381.94;5012974;28;20036;-70
2022/07/20 02:53:33;;;;;;;8.80;4.25;;;;;;;17.91;91.61;98375.69;5011373;28;20470;-70
2022/07/20 02:55:58;;;;;;;5.45;3.85;;;;;;;17.89;92.10;98377.97;5012600;28;20037;-70
2022/07/20 02:58:24;;;;;;;5.95;4.10;;;;;;;17.90;91.70;98385.94;5012427;28;20026;-70
2022/07/20 03:00:49;;;;;;;6.38;3.92;;;;;;;17.80;91.97;98375.22;5012512;28;20034;-70
2022/07/20 03:03:14;;;;;;;5.53;3.78;;;;;;;17.82;91.61;98378.50;5012599;28;20026;-70
2022/07/20 03:05:40;;;;;;;6.38;3.60;;;;;;;17.76;91.71;98385.34;5012507;28;20030;-70
2022/07/20 03:08:06;;;;;;;6.63;4.03;;;;;;;17.78;91.31;98383.06;5008877;28;20057;-70
2022/07/20 03:10:32;;;;;;;9.20;4.38;;;;;;;17.70;91.97;98386.66;5002328;28;20065;-70
2022/07/20 03:12:58;;;;;;;8.02;4.32;;;;;;;17.70;92.01;98386.66;5012072;28;20550;-70
2022/07/20 03:15:23;;;;;;;5.85;3.83;;;;;;;17.70;92.19;98392.19;4995721;28;20109;-70
2022/07/20 03:17:51;;;;;;;5.60;3.72;;;;;;;17.71;92.50;98399.38;4992404;28;20110;-70
2022/07/20 03:20:34;;;;;;;8.15;4.13;;;;;;;17.73;92.12;98397.06;4992524;28;20034;-70
2022/07/20 03:23:01;;;;;;;5.50;3.75;;;;;;;17.75;92.17;98389.25;4992332;28;20042;-70
2022/07/20 03:25:26;;;;;;;7.03;4.00;;;;;;;17.76;92.59;98390.09;4992075;28;20033;-70
2022/07/20 03:27:56;;;;;;;8.82;4.35;;;;;;;17.75;92.36;98389.25;5010390;28;20466;-70
2022/07/20 03:30:22;;;;;;;9.25;4.93;;;;;;;17.81;91.87;98390.72;5011682;28;20105;-70
2022/07/20 03:32:48;;;;;;;8.30;3.90;;;;;;;17.82;91.36;98392.34;5011702;28;20026;-70
2022/07/20 03:35:14;;;;;;;4.90;3.55;;;;;;;17.81;91.49;98393.47;5011425;28;20046;-69
2022/07/20 03:37:39;;;;;;;5.65;4.18;;;;;;;17.84;92.16;98398.34;5010694;28;20033;-70
2022/07/20 03:40:06;;;;;;;6.35;3.90;;;;;;;17.84;92.43;98400.28;5011938;28;20026;-70
2022/07/20 03:42:32;;;;;;;4.82;3.70;;;;;;;18.01;91.29;98401.03;5011375;28;20402;-69
2022/07/20 03:44:58;;;;;;;5.15;3.90;;;;;;;18.28;89.15;98401.72;5011386;28;20158;-70
2022/07/20 03:47:23;;;;;;;6.20;4.32;;;;;;;18.59;87.47;98399.44;5011407;28;20037;-70
2022/07/20 03:49:50;;;;;;;4.97;3.78;;;;;;;19.00;84.72;98409.72;5011352;28;20470;-70
2022/07/20 03:52:16;;;;;;;7.28;3.80;;;;;;;19.49;81.22;98407.97;5011624;28;20022;-70
2022/07/20 03:54:41;;;;;;;5.13;3.85;;;;;;;20.01;77.14;98422.91;5012016;28;20022;-71
2022/07/20 03:57:06;;;;;;;7.45;3.80;;;;;;;20.51;74.01;98419.81;5011667;28;20116;-72
2022/07/20 03:59:33;;;;;;;6.90;4.25;;;;;;;20.52;74.56;98417.81;5011118;28;20471;-71
2022/07/20 04:01:58;;;;;;;6.05;3.70;;;;;;;20.62;74.91;98414.56;4995907;28;20394;-71
2022/07/20 04:04:24;;;;;;;7.25;4.32;;;;;;;21.38;71.53;98417.28;4995725;28;20097;-72
2022/07/20 04:06:49;;;;;;;5.22;4.05;;;;;;;21.62;69.26;98416.34;4994423;28;20491;-70
2022/07/20 04:09:14;;;;;;;7.80;4.20;;;;;;;21.72;68.56;98411.06;4992412;28;20068;-71
2022/07/20 04:11:40;;;;;;;8.02;4.22;;;;;;;21.28;69.75;98412.22;4991466;28;20034;-71
2022/07/20 04:14:05;;;;;;;7.63;4.25;;;;;;;20.27;74.42;98423.41;4991475;28;20064;-71
2022/07/20 04:16:30;;;;;;;6.68;4.25;;;;;;;19.47;79.52;98413.06;4991150;28;20036;-72
2022/07/20 04:18:55;;;;;;;5.60;4.20;;;;;;;19.19;81.54;98413.63;4991132;28;20030;-71
2022/07/20 04:21:21;;;;;;;6.68;4.45;;;;;;;19.19;82.35;98405.31;4991411;28;20054;-71
2022/07/20 04:23:46;;;;;;;5.82;4.20;;;;;;;19.39;81.90;98414.72;4990974;28;20121;-71
2022/07/20 04:26:12;;;;;;;6.82;3.80;;;;;;;19.93;78.19;98401.59;4991234;28;20044;-71
2022/07/20 04:28:37;;;;;;;6.00;4.10;;;;;;;20.38;75.04;98420.16;4991521;28;20088;-69
2022/07/20 04:31:02;;;;;;;8.27;4.75;;;;;;;20.56;73.85;98427.09;4991099;28;20022;-69
2022/07/20 04:33:28;;;;;;;9.95;5.28;;;;;;;21.85;67.15;98422.94;4991057;28;20026;-70
2022/07/20 04:35:54;;;;;;;8.88;5.55;;;;;;;22.94;62.19;98433.25;4991033;28;20180;-73
2022/07/20 04:38:20;;;;;;;9.55;5.05;;;;;;;22.91;61.68;98432.00;4991344;28;20033;-73
2022/07/20 04:40:45;;;;;;;13.60;5.32;;;;;;;22.90;61.65;98432.34;5002310;28;20026;-73
2022/07/20 04:43:10;;;;;;;9.50;5.10;;;;;;;22.33;63.02;98428.19;5011003;28;20045;-73
2022/07/20 04:45:36;;;;;;;10.00;5.88;;;;;;;21.85;65.15;98434.91;5010607;28;20036;-72
2022/07/20 04:48:01;;;;;;;11.50;6.15;;;;;;;21.34;67.88;98433.88;5010561;28;20375;-71
2022/07/20 04:50:27;;;;;;;9.85;5.50;;;;;;;21.22;68.84;98430.34;5016220;28;20030;-71
2022/07/20 04:52:52;;;;;;;7.70;5.05;;;;;;;21.36;68.22;98436.31;5016853;28;20037;-71
2022/07/20 04:55:17;;;;;;;10.13;4.93;;;;;;;22.15;65.32;98440.88;5016746;28;20041;-69
2022/07/20 04:57:43;;;;;;;7.70;4.97;;;;;;;23.62;59.63;98443.88;5017081;28;20034;-69
2022/07/20 05:00:09;;;;;;;9.32;5.22;;;;;;;23.81;57.97;98443.84;5016862;28;20021;-70
2022/07/20 05:02:44;;;;;;;13.13;6.07;;;;;;;23.51;58.27;98445.66;5018006;28;20034;-73
2022/07/20 05:05:10;;;;;;;13.75;6.30;;;;;;;22.42;62.58;98444.75;5018646;28;20080;-68
2022/07/20 05:07:35;;;;;;;9.68;6.10;;;;;;;21.85;65.42;98450.81;5016878;28;20034;-73
2022/07/20 05:10:00;;;;;;;10.90;5.70;;;;;;;22.67;62.31;98451.78;5017118;28;20021;-72
2022/07/20 05:12:26;;;;;;;8.73;5.22;;;;;;;22.49;62.42;98444.13;5015479;28;20045;-72
2022/07/20 05:14:51;;;;;;;13.20;6.03;;;;;;;21.95;64.56;98446.72;5013175;28;20586;-74
2022/07/20 05:17:16;;;;;;;8.77;5.55;;;;;;;21.52;66.78;98444.72;5016729;28;20107;-74
2022/07/20 05:19:42;;;;;;;8.73;5.20;;;;;;;21.36;67.72;98444.66;5015639;28;20418;-75
2022/07/20 05:22:07;;;;;;;12.82;5.72;;;;;;;21.66;67.00;98445.09;5011331;28;20057;-73
2022/07/20 05:24:32;;;;;;;7.85;5.35;;;;;;;21.53;66.84;98435.19;5015335;28;20105;-72
2022/07/20 05:26:57;;;;;;;8.15;5.45;;;;;;;21.61;66.88;98442.59;5015836;28;21912;-74
2022/07/20 05:29:23;;;;;;;13.50;4.78;;;;;;;21.81;66.50;98438.75;5016261;28;20367;-74
2022/07/20 05:31:48;;;;;;;11.02;4.60;;;;;;;21.70;66.76;98434.88;5016750;28;20050;-74
2022/07/20 05:34:13;;;;;;;12.07;5.28;;;;;;;21.62;67.22;98436.66;5017011;28;20112;-75
2022/07/20 05:36:39;;;;;;;8.45;4.53;;;;;;;21.44;67.86;98438.13;5015633;28;20042;-74
2022/07/20 05:39:04;;;;;;;7.95;4.55;;;;;;;21.73;66.62;98436.94;5017219;28;20053;-74
2022/07/20 05:41:30;;;;;;;10.95;5.05;;;;;;;21.71;66.89;98439.25;5017150;28;20030;-73
2022/07/20 05:43:55;;;;;;;9.05;5.40;;;;;;;21.63;67.23;98440.25;5015473;28;20085;-73
2022/07/20 05:46:20;;;;;;;8.40;5.05;;;;;;;21.93;65.60;98444.28;5013050;28;20111;-74
2022/07/20 05:48:45;;;;;;;17.10;5.75;;;;;;;22.00;64.64;98444.47;5016227;28;20026;-74
2022/07/20 05:51:11;;;;;;;7.03;4.70;;;;;;;22.19;64.06;98441.78;5002025;28;20022;-74
2022/07/20 05:53:36;;;;;;;12.57;4.93;;;;;;;22.27;62.62;98446.34;4995944;28;20041;-73
2022/07/20 05:56:02;;;;;;;8.20;4.80;;;;;;;22.31;62.36;98444.47;4996158;28;20514;-72
2022/07/20 05:58:27;;;;;;;6.47;4.63;;;;;;;22.48;62.81;98436.91;4997427;28;20030;-71
2022/07/20 06:00:52;;;;;;;7.50;4.55;;;;;;;22.82;61.07;98447.31;5008498;28;20036;-75
2022/07/20 06:03:18;;;;;;;7.28;4.78;;;;;;;23.10;60.35;98445.16;5012801;28;20029;-73
2022/07/20 06:05:43;;;;;;;8.15;4.45;;;;;;;23.28;59.09;98454.72;5012935;28;20026;-71
2022/07/20 06:08:08;;;;;;;5.90;4.10;;;;;;;23.44;58.66;98449.91;5012906;28;20054;-69
2022/07/20 06:10:35;;;;;;;6.18;4.57;;;;;;;23.58;58.28;98454.19;5013434;28;20137;-71
2022/07/20 06:13:02;;;;;;;7.00;4.50;;;;;;;23.76;57.79;98455.34;5012565;28;20053;-70
2022/07/20 06:15:27;;;;;;;7.13;4.75;;;;;;;23.31;58.80;98453.19;5012957;28;20026;-71
2022/07/20 06:17:54;;;;;;;7.90;4.88;;;;;;;22.63;61.21;98445.25;5013151;28;20368;-72
2022/07/20 06:20:20;;;;;;;6.28;4.32;;;;;;;22.70;61.28;98445.47;5013385;28;20033;-72
2022/07/20 06:22:46;;;;;;;6.40;4.43;;;;;;;23.15;59.74;98446.88;5013312;28;20026;-71
2022/07/20 06:25:13;;;;;;;7.30;4.32;;;;;;;22.83;60.17;98452.56;5012892;28;20028;-72
2022/07/20 06:27:38;;;;;;;5.78;4.35;;;;;;;22.79;60.67;98445.25;5013170;28;20029;-71
2022/07/20 06:30:06;;;;;;;5.90;4.32;;;;;;;23.25;59.32;98455.47;5013234;28;20030;-71
2022/07/20 06:32:32;;;;;;;6.20;4.68;;;;;;;22.95;60.10;98448.81;5013047;28;20087;-72
2022/07/20 06:34:58;;;;;;;10.50;5.57;;;;;;;23.08;59.44;98446.72;5012949;28;20116;-71
2022/07/20 06:37:24;;;;;;;9.18;5.05;;;;;;;22.96;59.90;98452.44;5013016;28;20029;-71
2022/07/20 06:39:49;;;;;;;7.13;4.40;;;;;;;22.84;60.86;98459.72;5013377;28;20041;-71
2022/07/20 06:42:15;;;;;;;6.22;4.15;;;;;;;23.24;59.42;98453.84;5013017;28;20048;-71
2022/07/20 06:44:41;;;;;;;6.45;5.18;;;;;;;23.19;58.95;98454.13;5012943;28;20037;-72
2022/07/20 06:47:06;;;;;;;6.97;4.68;;;;;;;23.26;58.70;98451.50;5012683;28;20069;-71
2022/07/20 06:49:31;;;;;;;5.88;3.90;;;;;;;23.77;57.30;98456.97;5012737;28;20053;-71
2022/07/20 06:51:57;;;;;;;6.80;4.15;;;;;;;24.22;55.35;98459.00;5012575;28;20068;-70
2022/07/20 06:54:22;;;;;;;7.90;4.25;;;;;;;24.38;54.57;98454.91;5012766;28;20069;-71
2022/07/20 06:56:48;;;;;;;6.38;4.35;;;;;;;24.55;54.33;98455.56;5012706;28;20034;-71
2022/07/20 06:59:13;;;;;;;5.72;4.20;;;;;;;24.77;53.87;98454.72;5012509;28;20105;-72
2022/07/20 07:01:39;;;;;;;6.72;4.05;;;;;;;25.13;52.96;98451.28;5012526;28;20079;-72
2022/07/20 07:04:04;;;;;;;6.63;4.20;;;;;;;25.02;52.61;98456.75;5012162;28;20468;-71
2022/07/20 07:06:30;;;;;;;8.13;4.85;;;;;;;24.85;52.83;98448.88;5012287;28;20029;-71
2022/07/20 07:08:56;;;;;;;7.60;4.63;;;;;;;24.82;53.23;98448.81;5012450;28;20037;-71
2022/07/20 07:11:22;;;;;;;6.95;4.68;;;;;;;24.95;52.70;98450.22;5012662;28;20030;-72
2022/07/20 07:13:47;;;;;;;7.20;4.82;;;;;;;25.17;51.95;98449.34;5009683;28;20383;-71
2022/07/20 07:16:12;;;;;;;8.32;5.43;;;;;;;25.17;51.74;98449.34;5010946;28;20084;-71
2022/07/20 07:18:38;;;;;;;10.05;4.78;;;;;;;25.43;52.07;98445.69;5011108;28;20045;-73
2022/07/20 07:21:04;;;;;;;10.02;5.70;;;;;;;25.54;51.20;98444.66;5010776;28;20240;-73
2022/07/20 07:23:29;;;;;;;8.80;5.65;;;;;;;25.76;50.49;98442.09;5008053;28;20391;-72
2022/07/20 07:25:55;;;;;;;12.00;5.53;;;;;;;25.62;50.26;98436.34;5010372;28;20041;-72
2022/07/20 07:28:20;;;;;;;9.07;5.30;;;;;;;25.83;50.46;98447.78;5010458;28;20061;-71
2022/07/20 07:30:45;;;;;;;6.97;4.95;;;;;;;25.90;49.90;98442.25;5011630;28;20036;-75
2022/07/20 07:33:11;;;;;;;11.75;5.50;;;;;;;26.04;48.84;98440.41;5011430;28;20072;-75
2022/07/20 07:35:36;;;;;;;7.68;4.65;;;;;;;26.20;49.22;98445.78;5010361;28;20090;-76
2022/07/20 07:38:01;;;;;;;8.77;4.88;;;;;;;26.54;48.33;98444.47;5011099;28;20026;-74
2022/07/20 07:40:27;;;;;;;8.13;4.57;;;;;;;26.93;47.35;98444.00;5011914;28;20113;-73
2022/07/20 07:42:52;;;;;;;8.35;4.50;;;;;;;26.63;47.99;98439.34;5011193;28;20037;-73
2022/07/20 07:45:18;;;;;;;5.40;4.32;;;;;;;27.19;46.35;98438.09;4993771;28;20033;-73
2022/07/20 07:47:45;;;;;;;7.20;4.18;;;;;;;27.49;45.96;98430.28;4999145;28;20042;-75
2022/07/20 07:50:11;;;;;;;7.93;4.72;;;;;;;27.59;45.73;98437.13;4991811;28;20034;-73
2022/07/20 07:52:36;;;;;;;6.18;4.68;;;;;;;27.92;44.30;98431.19;4992055;28;20061;-74
2022/07/20 07:55:02;;;;;;;6.00;4.20;;;;;;;28.28;44.09;98440.53;4993261;28;20554;-73
2022/07/20 07:57:27;;;;;;;8.73;4.63;;;;;;;28.27;42.97;98444.56;4992747;28;20030;-76
2022/07/20 07:59:53;;;;;;;9.27;4.95;;;;;;;28.28;42.94;98440.53;4974880;28;20030;-78
2022/07/20 08:02:18;;;;;;;5.65;3.92;;;;;;;28.05;43.16;98431.66;4992129;28;20054;-74
2022/07/20 08:04:43;;;;;;;6.38;4.43;;;;;;;28.31;42.49;98433.31;4992024;28;20477;-74
2022/07/20 08:07:09;;;;;;;7.90;4.30;;;;;;;28.64;42.00;98428.06;4992021;28;20034;-73
2022/07/20 08:09:34;;;;;;;6.32;4.25;;;;;;;28.68;40.61;98428.91;4993214;28;20729;-74
2022/07/20 08:11:59;;;;;;;5.57;3.42;;;;;;;28.63;40.46;98426.44;4996265;28;20019;-74
2022/07/20 08:14:25;;;;;;;5.22;3.63;;;;;;;28.81;40.32;98422.84;4974304;28;20452;-72
2022/07/20 08:16:50;;;;;;;4.78;4.18;;;;;;;28.98;38.99;98428.44;4991825;28;20041;-73
2022/07/20 08:19:15;;;;;;;7.45;4.25;;;;;;;28.75;39.82;98428.09;4991546;28;20041;-74
2022/07/20 08:21:41;;;;;;;9.45;4.13;;;;;;;29.09;38.86;98419.97;4991535;28;20058;-73
2022/07/20 08:24:06;;;;;;;5.83;3.80;;;;;;;29.62;37.81;98431.09;4990875;28;20030;-74
2022/07/20 08:26:32;;;;;;;4.47;3.13;;;;;;;29.66;37.53;98435.50;4991274;28;20359;-75
2022/07/20 08:28:57;;;;;;;5.57;3.53;;;;;;;29.54;37.60;98423.88;4991567;28;20077;-75
2022/07/20 08:31:22;;;;;;;8.50;4.05;;;;;;;29.21;37.60;98431.63;4998261;28;20038;-72
2022/07/20 08:33:48;;;;;;;5.47;3.38;;;;;;;29.65;37.52;98416.16;5009894;28;20025;-71
2022/07/20 08:36:13;;;;;;;6.63;3.35;;;;;;;29.62;36.88;98411.34;5009503;28;20038;-74
2022/07/20 08:38:40;;;;;;;9.43;3.50;;;;;;;29.35;36.96;98415.91;5006859;28;20124;-73
2022/07/20 08:41:07;;;;;;;6.32;3.55;;;;;;;29.85;36.95;98416.50;4998437;28;20124;-72
2022/07/20 08:43:33;;;;;;;5.00;3.40;;;;;;;30.18;36.06;98413.03;5009139;28;20045;-72
2022/07/20 08:45:58;;;;;;;10.73;3.63;;;;;;;30.80;35.56;98416.56;5009628;28;20676;-72
2022/07/20 08:48:26;;;;;;;9.02;3.30;;;;;;;29.95;35.89;98412.78;5009635;28;20467;-73
2022/07/20 08:50:52;;;;;;;4.57;3.38;;;;;;;29.62;36.27;98411.34;5009245;28;20026;-71
2022/07/20 08:53:18;;;;;;;7.95;3.55;;;;;;;29.62;36.38;98420.63;5009360;28;20022;-72
2022/07/20 08:55:44;;;;;;;5.22;3.42;;;;;;;29.84;35.83;98412.06;5009221;28;20121;-72
2022/07/20 08:58:10;;;;;;;11.00;3.30;;;;;;;30.29;35.77;98405.31;5009436;28;20172;-72
2022/07/20 09:00:35;;;;;;;4.65;3.45;;;;;;;29.84;36.24;98410.03;5009406;28;20461;-72
2022/07/20 09:03:03;;;;;;;5.27;2.80;;;;;;;30.15;34.34;98411.03;5009278;28;20116;-73
2022/07/20 09:05:34;;;;;;;6.03;2.70;;;;;;;30.13;35.11;98403.00;5006552;28;20283;-72
2022/07/20 09:08:01;;;;;;;5.30;3.35;;;;;;;30.49;34.62;98403.53;5009597;28;20132;-74
2022/07/20 09:10:34;;;;;;;4.07;3.67;;;;;;;30.98;34.24;98407.16;5006869;28;20018;-73
2022/07/20 09:13:05;;;;;;;5.00;3.20;;;;;;;31.16;33.90;98402.91;5009013;28;20088;-71
2022/07/20 09:15:31;;;;;;;9.95;4.53;;;;;;;30.88;33.85;98402.38;5002174;28;20033;-72
2022/07/20 09:18:05;;;;;;;5.20;3.60;;;;;;;31.20;33.54;98397.22;5005641;28;20026;-73
2022/07/20 09:20:31;;;;;;;;;;;;;;;31.53;34.04;98399.25;5007421;28;20033;-72
2022/07/20 09:23:06;;;;;;;6.15;3.05;;;;;;;31.64;33.29;98391.41;5008390;28;20294;-71
2022/07/20 09:25:31;;;;;;;7.65;3.25;;;;;;;31.80;33.40;98393.59;5006506;28;20034;-71
2022/07/20 09:27:58;;;;;;;6.07;3.15;;;;;;;31.39;32.95;98399.38;5008315;28;20038;-71
2022/07/20 09:30:24;;;;;;;7.38;3.08;;;;;;;30.88;33.81;98406.00;5008458;28;20033;-72
2022/07/20 09:32:57;;;;;;;5.57;3.00;;;;;;;31.09;33.59;98402.97;5008581;28;20045;-72
2022/07/20 09:35:26;;;;;;;5.78;3.10;;;;;;;30.38;35.43;98394.34;5009296;28;20046;-73
2022/07/20 09:37:51;;;;;;;4.45;2.70;;;;;;;30.53;34.90;98387.38;5014132;28;20075;-72
2022/07/20 09:40:16;;;;;;;5.28;3.28;;;;;;;30.73;34.58;98379.91;5013680;28;20026;-70
2022/07/20 09:42:43;;;;;;;5.38;3.42;;;;;;;30.79;34.32;98381.03;5013511;28;20546;-71
2022/07/20 09:45:24;;;;;;;3.83;3.10;;;;;;;31.47;32.57;98386.75;5012871;28;20037;-71
2022/07/20 09:48:11;;;;;;;5.68;2.85;;;;;;;31.02;33.24;98388.91;5006226;28;20144;-72
2022/07/20 09:50:39;;;;;;;3.92;2.90;;;;;;;30.70;33.82;98386.38;4996423;28;20049;-72
2022/07/20 09:53:07;;;;;;;6.38;2.90;;;;;;;30.69;33.65;98376.31;5016404;28;20061;-70
2022/07/20 09:55:33;;;;;;;3.60;2.88;;;;;;;30.82;33.24;98381.44;5013111;28;20048;-71
2022/07/20 09:57:59;;;;;;;3.83;3.08;;;;;;;31.23;32.76;98363.22;5012691;28;20118;-71
2022/07/20 10:00:25;;;;;;;3.67;2.83;;;;;;;31.41;32.00;98363.00;5012923;28;20112;-70
2022/07/20 10:02:53;;;;;;;8.20;3.13;;;;;;;31.50;33.00;98360.47;5012686;28;20064;-70
2022/07/20 10:05:20;;;;;;;4.05;2.90;;;;;;;31.43;33.12;98371.84;5012655;28;20026;-70
2022/07/20 10:07:46;;;;;;;4.13;2.72;;;;;;;31.00;32.60;98365.13;5012683;28;20088;-72
2022/07/20 10:10:11;;;;;;;5.32;3.08;;;;;;;30.88;32.25;98368.47;5011892;28;20030;-70
2022/07/20 10:12:38;;;;;;;4.13;2.67;;;;;;;31.03;32.80;98358.63;5013502;28;20084;-71
2022/07/20 10:15:10;;;;;;;4.60;3.20;;;;;;;31.45;31.69;98363.72;5012389;28;20038;-72
2022/07/20 10:17:36;;;;;;;4.22;3.17;;;;;;;31.81;31.35;98361.25;5019623;28;20391;-72
2022/07/20 10:20:02;;;;;;;6.63;3.17;;;;;;;31.22;33.08;98352.34;5012800;28;20064;-71
2022/07/20 10:22:28;;;;;;;4.57;3.15;;;;;;;31.35;33.82;98352.56;5012600;28;20439;-73
2022/07/20 10:25:21;;;;;;;6.38;3.50;;;;;;;31.61;33.26;98355.47;5012424;28;20026;-73
2022/07/20 10:27:46;;;;;;;4.70;2.60;;;;;;;31.05;33.02;98354.16;5008977;28;20073;-71
2022/07/20 10:30:17;;;;;;;4.53;3.33;;;;;;;30.89;33.86;98351.06;5009651;28;20061;-72
2022/07/20 10:32:56;;;;;;;5.32;3.45;;;;;;;31.52;33.09;98349.53;5010384;28;20026;-71
2022/07/20 10:35:29;;;;;;;3.97;3.30;;;;;;;31.54;32.65;98349.94;5012058;28;20418;-71
2022/07/20 10:37:56;;;;;;;4.22;2.92;;;;;;;31.31;32.06;98346.97;5011987;28;20500;-73
2022/07/20 10:40:24;;;;;;;4.03;2.97;;;;;;;31.98;30.96;98346.03;5010758;28;20490;-72
2022/07/20 10:43:13;;;;;;;4.53;2.70;;;;;;;32.26;29.88;98351.28;5011319;28;20018;-72
2022/07/20 10:45:38;;;;;;;3.90;3.20;;;;;;;31.51;31.57;98338.66;5010043;28;20049;-71
2022/07/20 10:48:13;;;;;;;4.13;2.95;;;;;;;31.96;30.96;98327.84;5010066;28;20364;-72
2022/07/20 10:50:39;;;;;;;4.50;2.60;;;;;;;32.36;30.32;98338.13;5010766;28;20042;-71
2022/07/20 10:53:11;;;;;;;3.33;2.65;;;;;;;31.95;29.27;98334.78;5010399;28;20144;-70
2022/07/20 10:55:36;;;;;;;3.22;2.72;;;;;;;31.14;29.65;98331.00;5010119;28;20022;-71
2022/07/20 10:58:07;;;;;;;4.30;2.60;;;;;;;30.91;29.78;98328.03;5010481;28;20061;-71
2022/07/20 11:00:34;;;;;;;3.45;3.00;;;;;;;31.63;28.66;98321.91;5009224;28;20303;-71
2022/07/20 11:03:01;;;;;;;3.55;2.60;;;;;;;32.40;27.84;98318.25;5010433;28;20120;-72
2022/07/20 11:05:27;;;;;;;3.65;2.63;;;;;;;32.33;27.69;98316.34;5008387;28;20021;-71
2022/07/20 11:07:52;;;;;;;4.55;2.70;;;;;;;32.35;27.52;98311.84;5010235;28;20040;-71
2022/07/20 11:10:24;;;;;;;3.53;2.65;;;;;;;32.24;28.13;98308.41;5009882;28;20036;-72
2022/07/20 11:13:07;;;;;;;4.00;2.40;;;;;;;32.72;27.88;98302.28;5000722;28;20052;-72
2022/07/20 11:15:38;;;;;;;5.57;3.00;;;;;;;32.79;26.38;98310.66;5007982;28;20022;-70
2022/07/20 11:18:05;;;;;;;4.70;2.70;;;;;;;32.03;26.03;98314.44;5010105;28;20100;-71
2022/07/20 11:20:31;;;;;;;6.47;3.03;;;;;;;31.57;26.65;98303.00;5010537;28;20022;-72
2022/07/20 11:22:57;;;;;;;4.43;2.40;;;;;;;31.52;26.94;98307.09;5010230;28;20040;-72
2022/07/20 11:25:24;;;;;;;3.40;2.47;;;;;;;31.61;26.56;98303.72;5010011;28;20045;-72
2022/07/20 11:28:00;;;;;;;3.10;2.55;;;;;;;31.90;25.91;98301.25;5007335;28;20034;-73
2022/07/20 11:30:35;;;;;;;4.53;2.83;;;;;;;31.93;25.70;98303.25;5010643;28;20033;-72